ADDS METAR Data INFO
IDs: Format: Raw Decoded Include TAF

Data at: 1413 UTC 12 Dec 2017

KGAD 121356Z AUTO 32008KT 10SM BKN055 08/00 A3000 RMK AO2 SLP166 T00830000
KGAD 121256Z AUTO VRB06KT 10SM CLR 07/M01 A2997 RMK AO2 SLP155 T00671006
KGAD 121156Z AUTO 30005KT 10SM CLR 07/M01 A2994 RMK AO2 SLP143 T00721006 10078 20000 53009
KGAD 121056Z AUTO 30004KT 10SM CLR 08/01 A2992 RMK AO2 SLP136 T00780006
KGAD 120956Z AUTO 25005KT 10SM CLR 06/02 A2991 RMK AO2 SLP132 T00560017
KGAD 120856Z AUTO 27006KT 10SM CLR 07/02 A2991 RMK AO2 SLP133 T00720017 55005
KGAD 120756Z AUTO 00000KT 10SM CLR 02/01 A2991 RMK AO2 SLP132 T00170011 FZRANO
KGAD 120656Z AUTO 00000KT 10SM CLR 02/01 A2991 RMK AO2 SLP135 T00170011 FZRANO
KGAD 120556Z AUTO 00000KT 10SM CLR 01/00 A2993 RMK AO2 SLP140 T00060000 10100 20000 401611044 58017 FZRANO
KGAD 120456Z AUTO 00000KT 10SM CLR 01/00 A2996 RMK AO2 SLP152 T00060000 FZRANO
KGAD 120356Z AUTO 00000KT 10SM CLR 02/01 A2998 RMK AO2 SLP158 T00170011 FZRANO
KGAD 120256Z AUTO 23003KT 10SM CLR 01/01 A2998 RMK AO2 SLP159 T00110006 56016 FZRANO
KGAD 120156Z AUTO 00000KT 10SM CLR 03/01 A3000 RMK AO2 SLP166 T00280011
KGAD 120056Z AUTO 34003KT 10SM CLR 07/02 A3001 RMK AO2 SLP170 T00720017
KGAD 112356Z AUTO 23003KT 10SM CLR 07/02 A3003 RMK AO2 SLP176 T00670022 10161 20067 55002
KGAD 112256Z AUTO 20004KT 10SM CLR 11/02 A3001 RMK AO2 SLP170 T01110022
KGAD 112156Z AUTO 21004KT 10SM CLR 14/03 A3002 RMK AO2 SLP173 T01440033
KGAD 112056Z AUTO 21005KT 10SM CLR 16/02 A3003 RMK AO2 SLP175 T01610017 56030
KGAD 111956Z AUTO 20005KT 10SM CLR 16/02 A3005 RMK AO2 SLP182 T01560022
KGAD 111856Z AUTO 19006KT 10SM CLR 14/02 A3008 RMK AO2 SLP192 T01390017
KGAD 111756Z AUTO 21005KT 10SM CLR 12/02 A3012 RMK AO2 SLP208 T01220017 10122 21039 58030
KGAD 111656Z AUTO 22003KT 10SM CLR 09/01 A3016 RMK AO2 SLP220 T00940006
KGAD 111556Z AUTO 16004KT 10SM CLR 07/01 A3020 RMK AO2 SLP233 T00670006
KGAD 111456Z AUTO 00000KT 10SM CLR 03/00 A3021 RMK AO2 SLP239 T00330000 51000
KGAD 111356Z AUTO 00000KT 10SM CLR M01/M02 A3021 RMK AO2 SLP240 T10111017 FZRANO
KGAD 111256Z AUTO 35003KT 10SM CLR M04/M04 A3021 RMK AO2 SLP239 T10391039 FZRANO
KGAD 111156Z AUTO 00000KT 10SM CLR M04/M04 A3021 RMK AO2 SLP241 T10391044 11022 21044 55003 FZRANO
KGAD 111056Z AUTO 00000KT 10SM CLR M03/M04 A3021 RMK AO2 SLP238 T10331039 FZRANO
KGAD 110956Z AUTO 00000KT 10SM CLR M04/M04 A3021 RMK AO2 SLP239 T10391039 FZRANO
KGAD 110856Z AUTO 00000KT 10SM CLR M03/M03 A3022 RMK AO2 SLP241 T10331033 56012 FZRANO
KGAD 110756Z AUTO 00000KT 10SM CLR M03/M04 A3022 RMK AO2 SLP243 T10331039 FZRANO
KGAD 110656Z AUTO 00000KT 10SM CLR M02/M03 A3024 RMK AO2 SLP247 T10221028 FZRANO
KGAD 110556Z AUTO 00000KT 10SM CLR M03/M03 A3025 RMK AO2 SLP253 T10281033 10017 21028 400891061 58002 FZRANO
KGAD 110456Z AUTO 00000KT 10SM CLR M02/M03 A3027 RMK AO2 SLP259 T10221028 FZRANO
KGAD 110356Z AUTO 20003KT 10SM CLR M03/M03 A3028 RMK AO2 SLP262 T10281033 FZRANO
KGAD 110256Z AUTO 00000KT 10SM CLR M01/M03 A3026 RMK AO2 SLP258 T10061028 53006 FZRANO